createdAt,value
2023-04-18T00:00:29.299Z,6.80
2023-04-18T00:01:29.451Z,7.10
2023-04-18T00:02:29.927Z,6.70
2023-04-18T00:03:30.479Z,6.40
2023-04-18T00:04:30.376Z,6.90
2023-04-18T00:05:30.727Z,7.20
2023-04-18T00:06:30.858Z,6.70
2023-04-18T00:07:31.199Z,6.60
2023-04-18T00:08:31.436Z,6.90
2023-04-18T00:09:31.851Z,6.80
2023-04-18T00:10:32.133Z,6.90
2023-04-18T00:11:32.528Z,6.80
2023-04-18T00:12:32.676Z,6.90
2023-04-18T00:13:32.937Z,6.90
2023-04-18T00:14:33.387Z,6.90
2023-04-18T00:15:33.505Z,7.10
2023-04-18T00:16:33.831Z,7.20
2023-04-18T00:17:34.376Z,7.00
2023-04-18T00:18:34.443Z,7.40
2023-04-18T00:19:34.792Z,7.10
2023-04-18T00:20:35.013Z,6.90
2023-04-18T00:21:35.288Z,7.20
2023-04-18T00:22:35.605Z,7.20
2023-04-18T00:23:35.907Z,7.20
2023-04-18T00:24:36.291Z,7.00
2023-04-18T00:25:36.449Z,6.80
2023-04-18T00:26:36.827Z,6.70
2023-04-18T00:27:36.934Z,6.90
2023-04-18T00:28:37.223Z,6.70
2023-04-18T00:29:37.564Z,6.70
2023-04-18T00:30:37.974Z,6.60
2023-04-18T00:31:38.220Z,7.00
2023-04-18T00:32:38.536Z,6.50
2023-04-18T00:33:38.668Z,6.80
2023-04-18T00:34:39.076Z,6.60
2023-04-18T00:35:39.333Z,7.00
2023-04-18T00:36:39.559Z,7.10
2023-04-18T00:37:39.904Z,7.00
2023-04-18T00:38:40.223Z,7.30
2023-04-18T00:39:40.542Z,7.30
2023-04-18T00:40:40.941Z,7.60
2023-04-18T00:41:41.106Z,7.20
2023-04-18T00:42:41.436Z,7.20
2023-04-18T00:43:41.981Z,7.40
2023-04-18T00:44:41.920Z,7.40
2023-04-18T00:45:42.246Z,7.10
2023-04-18T00:46:42.497Z,7.20
2023-04-18T00:47:42.834Z,7.20
2023-04-18T00:48:43.221Z,7.30
2023-04-18T00:49:43.303Z,7.30
2023-04-18T00:50:43.705Z,7.40
2023-04-18T00:51:44.046Z,7.60
2023-04-18T00:52:44.372Z,7.60
2023-04-18T00:53:44.608Z,7.60
2023-04-18T00:54:44.926Z,7.50
2023-04-18T00:55:45.452Z,7.90
2023-04-18T00:56:45.598Z,7.60
2023-04-18T00:57:45.885Z,7.50
2023-04-18T00:58:46.221Z,7.80
2023-04-18T00:59:46.443Z,7.40
2023-04-18T01:00:46.777Z,7.60
2023-04-18T01:01:47.038Z,7.90
2023-04-18T01:02:47.379Z,7.30
2023-04-18T01:03:48.096Z,7.40
2023-04-18T01:04:48.025Z,7.50
2023-04-18T01:05:48.237Z,7.50
2023-04-18T01:06:48.516Z,7.30
2023-04-18T01:07:48.784Z,7.50
2023-04-18T01:08:49.175Z,7.30
2023-04-18T01:09:49.402Z,7.20
2023-04-18T01:10:49.717Z,7.50
2023-04-18T01:11:49.929Z,7.20
2023-04-18T01:12:50.233Z,7.20
2023-04-18T01:13:50.643Z,7.50
2023-04-18T01:14:50.920Z,7.20
2023-04-18T01:15:51.272Z,7.50
2023-04-18T01:16:51.534Z,7.40
2023-04-18T01:17:51.867Z,7.60
2023-04-18T01:18:52.131Z,7.90
2023-04-18T01:19:52.430Z,7.50
2023-04-18T01:20:52.845Z,7.80
2023-04-18T01:21:53.129Z,7.60
2023-04-18T01:22:53.390Z,7.70
2023-04-18T01:23:53.753Z,7.50
2023-04-18T01:24:54.098Z,7.90
2023-04-18T01:25:54.405Z,8.00
2023-04-18T01:26:54.734Z,7.60
2023-04-18T01:27:54.964Z,8.10
2023-04-18T01:28:55.290Z,7.90
2023-04-18T01:29:55.602Z,8.20
2023-04-18T01:30:55.956Z,7.90
2023-04-18T01:31:56.224Z,7.90
2023-04-18T01:32:56.566Z,8.50
2023-04-18T01:33:56.794Z,8.50
2023-04-18T01:34:57.107Z,8.50
2023-04-18T01:35:57.467Z,8.10
2023-04-18T01:36:57.787Z,8.30
2023-04-18T01:37:58.096Z,8.40
2023-04-18T01:38:58.405Z,8.00
2023-04-18T01:39:58.674Z,8.40
2023-04-18T01:40:59.025Z,8.10
2023-04-18T01:41:59.481Z,8.20
2023-04-18T01:42:59.609Z,8.40
2023-04-18T01:43:59.926Z,8.00
2023-04-18T01:45:00.692Z,8.40
2023-04-18T01:46:00.521Z,7.90
2023-04-18T01:47:00.919Z,8.00
2023-04-18T01:48:01.062Z,7.90
2023-04-18T01:49:01.420Z,8.30
2023-04-18T01:50:01.584Z,8.20
2023-04-18T01:51:01.857Z,8.30
2023-04-18T01:52:02.691Z,8.30
2023-04-18T01:53:02.493Z,7.80
2023-04-18T01:54:02.798Z,8.30
2023-04-18T01:55:03.160Z,8.50
2023-04-18T01:56:03.502Z,8.30
2023-04-18T01:57:03.740Z,7.90
2023-04-18T01:58:04.070Z,8.40
2023-04-18T01:59:04.368Z,8.20
2023-04-18T02:00:04.686Z,8.30
2023-04-18T02:01:04.959Z,8.40
2023-04-18T02:02:05.298Z,8.10
2023-04-18T02:03:05.600Z,8.20
2023-04-18T02:04:05.892Z,8.10
2023-04-18T02:05:06.023Z,8.30
2023-04-18T02:06:06.274Z,8.30
2023-04-18T02:07:07.060Z,7.90
2023-04-18T02:08:06.892Z,8.00
2023-04-18T02:09:07.252Z,8.10
2023-04-18T02:10:07.522Z,8.40
2023-04-18T02:11:07.920Z,8.40
2023-04-18T02:12:08.154Z,8.20
2023-04-18T02:13:08.635Z,8.10
2023-04-18T02:14:08.747Z,8.10
2023-04-18T02:15:09.078Z,8.30
2023-04-18T02:16:09.459Z,8.00
2023-04-18T02:17:09.874Z,8.20
2023-04-18T02:18:10.008Z,8.10
2023-04-18T02:19:10.319Z,8.30
2023-04-18T02:20:10.577Z,8.20
2023-04-18T02:21:10.900Z,8.30
2023-04-18T02:22:11.299Z,8.30
2023-04-18T02:23:11.469Z,8.50
2023-04-18T02:24:12.046Z,8.10
2023-04-18T02:25:12.136Z,8.10
2023-04-18T02:26:12.407Z,8.40
2023-04-18T02:27:12.754Z,8.20
2023-04-18T02:28:13.030Z,8.10
2023-04-18T02:29:13.381Z,8.00
2023-04-18T02:30:13.602Z,8.50
2023-04-18T02:31:14.041Z,8.30
2023-04-18T02:32:14.165Z,8.50
2023-04-18T02:33:14.487Z,8.00
2023-04-18T02:34:14.907Z,8.70
2023-04-18T02:35:15.100Z,8.30
2023-04-18T02:36:15.395Z,7.90
2023-04-18T02:37:15.686Z,8.20
2023-04-18T02:38:16.438Z,8.00
2023-04-18T02:39:16.273Z,8.20
2023-04-18T02:40:16.587Z,8.50
2023-04-18T02:41:16.984Z,8.00
2023-04-18T02:42:17.146Z,8.30
2023-04-18T02:43:17.470Z,8.10
2023-04-18T02:44:17.864Z,8.40
2023-04-18T02:45:18.109Z,8.10
2023-04-18T02:46:18.474Z,8.60
2023-04-18T02:47:18.691Z,8.30
2023-04-18T02:48:19.049Z,8.30
2023-04-18T02:49:19.271Z,8.50
2023-04-18T02:50:19.536Z,8.50
2023-04-18T02:51:19.801Z,8.70
2023-04-18T02:52:20.509Z,8.20
2023-04-18T02:53:20.516Z,8.10
2023-04-18T02:54:20.770Z,8.10
2023-04-18T02:55:21.147Z,7.90
2023-04-18T02:56:21.403Z,8.00
2023-04-18T02:57:21.712Z,7.90
2023-04-18T02:58:22.059Z,8.20
2023-04-18T02:59:22.327Z,8.00
2023-04-18T03:00:22.668Z,7.80
2023-04-18T03:01:22.998Z,8.20
2023-04-18T03:02:23.359Z,8.10
2023-04-18T03:03:23.567Z,8.20
2023-04-18T03:04:23.868Z,8.30
2023-04-18T03:05:24.218Z,8.30
2023-04-18T03:06:24.546Z,7.80
2023-04-18T03:07:24.709Z,8.20
2023-04-18T03:08:25.000Z,8.00
2023-04-18T03:09:25.340Z,8.20
2023-04-18T03:10:25.732Z,7.90
2023-04-18T03:11:25.963Z,8.30
2023-04-18T03:12:26.181Z,8.20
2023-04-18T03:13:26.551Z,8.50
2023-04-18T03:14:26.852Z,8.20
2023-04-18T03:15:27.163Z,8.10
2023-04-18T03:16:27.603Z,9.30
2023-04-18T03:17:27.899Z,8.10
2023-04-18T03:18:27.992Z,9.00
2023-04-18T03:19:28.335Z,8.50
2023-04-18T03:20:28.628Z,8.20
2023-04-18T03:21:28.963Z,8.30
2023-04-18T03:22:29.145Z,8.40
2023-04-18T03:23:29.478Z,8.40
2023-04-18T03:24:29.725Z,8.20
2023-04-18T03:25:30.054Z,8.30
2023-04-18T03:26:30.408Z,8.30
2023-04-18T03:27:30.678Z,8.50
2023-04-18T03:28:31.131Z,8.40
2023-04-18T03:29:31.242Z,7.80
2023-04-18T03:30:31.720Z,8.20
2023-04-18T03:31:31.926Z,8.50
2023-04-18T03:32:32.307Z,8.50
2023-04-18T03:33:32.522Z,8.50
2023-04-18T03:34:32.771Z,8.80
2023-04-18T03:35:33.191Z,8.70
2023-04-18T03:36:33.342Z,8.60
2023-04-18T03:37:33.693Z,8.70
2023-04-18T03:38:33.960Z,8.80
2023-04-18T03:39:34.249Z,8.70
2023-04-18T03:40:34.528Z,8.80
2023-04-18T03:41:34.790Z,8.70
2023-04-18T03:42:35.110Z,8.90
2023-04-18T03:43:35.406Z,9.00
2023-04-18T03:44:35.816Z,8.70
2023-04-18T03:45:36.005Z,9.00
2023-04-18T03:46:36.343Z,9.00
2023-04-18T03:47:36.646Z,9.40
2023-04-18T03:48:36.903Z,8.50
2023-04-18T03:49:37.318Z,9.30
2023-04-18T03:50:37.975Z,9.10
2023-04-18T03:51:37.779Z,9.30
2023-04-18T03:52:38.187Z,9.10
2023-04-18T03:53:38.464Z,9.30
2023-04-18T03:54:38.824Z,9.00
2023-04-18T03:55:39.396Z,9.70
2023-04-18T03:56:39.367Z,10.40
2023-04-18T03:57:40.829Z,9.90
2023-04-18T03:58:39.872Z,10.10
2023-04-18T03:59:40.586Z,9.90
2023-04-18T04:00:40.554Z,9.70
2023-04-18T04:01:40.719Z,9.70
2023-04-18T04:02:41.008Z,10.00
2023-04-18T04:03:41.397Z,10.30
2023-04-18T04:04:41.576Z,9.90
2023-04-18T04:05:41.761Z,9.80
2023-04-18T04:06:42.148Z,9.70
2023-04-18T04:07:42.355Z,9.60
2023-04-18T04:08:42.632Z,9.60
2023-04-18T04:09:42.887Z,9.30
2023-04-18T04:10:43.091Z,9.80
2023-04-18T04:11:43.429Z,9.70
2023-04-18T04:12:43.750Z,9.70
2023-04-18T04:13:44.088Z,10.00
2023-04-18T04:14:44.318Z,10.30
2023-04-18T04:15:44.666Z,10.20
2023-04-18T04:16:45.033Z,9.70
2023-04-18T04:17:45.213Z,10.00
2023-04-18T04:18:45.541Z,10.20
2023-04-18T04:19:45.905Z,10.60
2023-04-18T04:20:46.282Z,10.70
2023-04-18T04:21:46.443Z,10.50
2023-04-18T04:22:46.664Z,10.50
2023-04-18T04:23:47.006Z,11.10
2023-04-18T04:24:47.275Z,10.90
2023-04-18T04:25:47.636Z,11.10
2023-04-18T04:26:47.935Z,10.80
2023-04-18T04:27:48.275Z,10.90
2023-04-18T04:28:48.545Z,10.40
2023-04-18T04:29:48.906Z,10.60
2023-04-18T04:30:49.207Z,10.80
2023-04-18T04:31:49.434Z,11.40
2023-04-18T04:32:49.801Z,10.80
2023-04-18T04:33:49.961Z,11.50
2023-04-18T04:34:50.319Z,11.10
2023-04-18T04:35:50.542Z,11.30
2023-04-18T04:36:50.746Z,11.40
2023-04-18T04:37:51.149Z,10.90
2023-04-18T04:38:51.473Z,11.30
2023-04-18T04:39:51.696Z,11.00
2023-04-18T04:40:51.898Z,11.30
2023-04-18T04:41:52.251Z,10.90
2023-04-18T04:42:52.516Z,11.00
2023-04-18T04:43:52.760Z,11.00
2023-04-18T04:44:53.054Z,11.00
2023-04-18T04:45:53.433Z,11.40
2023-04-18T04:46:53.604Z,11.60
2023-04-18T04:47:53.804Z,11.60
2023-04-18T04:48:54.029Z,11.70
2023-04-18T04:49:54.294Z,11.40
2023-04-18T04:50:54.518Z,11.00
2023-04-18T04:51:54.766Z,11.00
2023-04-18T04:52:55.048Z,11.60
2023-04-18T04:53:55.336Z,11.80
2023-04-18T04:54:55.619Z,11.90
2023-04-18T04:55:55.872Z,11.90
2023-04-18T04:56:56.104Z,11.40
2023-04-18T04:57:56.486Z,12.00
2023-04-18T04:58:56.897Z,11.70
2023-04-18T04:59:56.962Z,11.90
2023-04-18T05:00:57.311Z,11.40
2023-04-18T05:01:57.566Z,12.10
2023-04-18T05:02:57.879Z,11.70
2023-04-18T05:03:58.289Z,11.60
2023-04-18T05:04:58.404Z,12.40
2023-04-18T05:05:58.621Z,11.70
2023-04-18T05:06:58.905Z,12.20
2023-04-18T05:07:59.167Z,11.70
2023-04-18T05:08:59.485Z,11.80
2023-04-18T05:09:59.777Z,11.40
2023-04-18T05:10:59.995Z,11.50
2023-04-18T05:12:00.256Z,11.90
2023-04-18T05:13:00.511Z,11.30
2023-04-18T05:14:00.766Z,11.30
2023-04-18T05:15:01.069Z,11.50
2023-04-18T05:16:01.307Z,11.70
2023-04-18T05:17:01.682Z,11.70
2023-04-18T05:18:01.901Z,11.30
2023-04-18T05:19:02.215Z,11.40
2023-04-18T05:20:02.383Z,11.90
2023-04-18T05:21:02.584Z,11.70
2023-04-18T05:22:03.029Z,11.20
2023-04-18T05:23:03.251Z,11.50
2023-04-18T05:24:03.476Z,11.50
2023-04-18T05:25:03.772Z,11.40
2023-04-18T05:26:04.110Z,11.00
2023-04-18T05:27:04.400Z,11.50
2023-04-18T05:28:04.583Z,12.20
2023-04-18T05:29:04.793Z,11.90
2023-04-18T05:30:05.140Z,11.40
2023-04-18T05:31:05.422Z,11.60
2023-04-18T05:32:05.675Z,11.70
2023-04-18T05:33:05.935Z,11.10
2023-04-18T05:34:06.287Z,11.80
2023-04-18T05:35:06.535Z,12.30
2023-04-18T05:36:07.025Z,12.20
2023-04-18T05:37:07.339Z,12.00
2023-04-18T05:38:07.630Z,11.50
2023-04-18T05:39:07.823Z,12.00
2023-04-18T05:40:08.103Z,11.90
2023-04-18T05:41:08.362Z,11.80
2023-04-18T05:42:08.662Z,12.10
2023-04-18T05:43:08.974Z,12.10
2023-04-18T05:44:09.149Z,12.00
2023-04-18T05:45:09.389Z,12.00
2023-04-18T05:46:09.663Z,12.50
2023-04-18T05:47:09.930Z,11.40
2023-04-18T05:48:10.410Z,12.00
2023-04-18T05:49:10.483Z,11.80
2023-04-18T05:50:10.768Z,12.00
2023-04-18T05:51:11.694Z,12.30
2023-04-18T05:52:11.341Z,12.10
2023-04-18T05:53:11.660Z,12.50
2023-04-18T05:54:12.392Z,12.40
2023-04-18T05:55:12.257Z,12.20
2023-04-18T05:56:12.612Z,12.00
2023-04-18T05:57:12.788Z,12.80
2023-04-18T05:58:13.186Z,12.00
2023-04-18T05:59:13.508Z,12.90
2023-04-18T06:00:13.762Z,12.90
2023-04-18T06:01:13.932Z,12.50
2023-04-18T06:02:14.487Z,11.40
2023-04-18T06:03:14.814Z,12.30
2023-04-18T06:04:15.288Z,12.50
2023-04-18T06:05:15.466Z,12.20
2023-04-18T06:06:15.461Z,12.30
2023-04-18T06:07:15.820Z,11.80
2023-04-18T06:08:15.943Z,12.50
2023-04-18T06:09:16.431Z,12.50
2023-04-18T06:10:16.845Z,13.00
2023-04-18T06:11:16.904Z,12.30
2023-04-18T06:12:17.189Z,11.70
2023-04-18T06:13:17.458Z,12.60
2023-04-18T06:14:17.733Z,12.10
2023-04-18T06:15:17.955Z,11.60
2023-04-18T06:16:18.351Z,12.70
2023-04-18T06:17:18.555Z,12.30
2023-04-18T06:18:19.050Z,12.10
2023-04-18T06:19:19.087Z,12.10
2023-04-18T06:20:19.476Z,12.20
2023-04-18T06:21:19.687Z,11.70
2023-04-18T06:22:20.052Z,11.60
2023-04-18T06:23:20.361Z,12.60
2023-04-18T06:24:20.636Z,11.80
2023-04-18T06:25:20.866Z,12.70
2023-04-18T06:26:21.092Z,13.40
2023-04-18T06:27:30.584Z,12.70
2023-04-18T06:28:22.732Z,12.60
2023-04-18T06:29:22.031Z,12.40
2023-04-18T06:30:22.337Z,12.40
2023-04-18T06:31:22.596Z,11.90
2023-04-18T06:32:22.937Z,12.80
2023-04-18T06:33:23.164Z,12.90
2023-04-18T06:34:23.436Z,12.40
2023-04-18T06:35:25.905Z,11.80
2023-04-18T06:36:24.041Z,12.70
2023-04-18T06:37:24.366Z,13.10
2023-04-18T06:38:24.741Z,12.30
2023-04-18T06:39:25.008Z,13.30
2023-04-18T06:40:25.232Z,12.30
2023-04-18T06:41:25.465Z,12.60
2023-04-18T06:42:25.872Z,12.20
2023-04-18T06:43:25.993Z,11.90
2023-04-18T06:44:26.394Z,12.40
2023-04-18T06:45:26.691Z,12.80
2023-04-18T06:46:27.147Z,12.40
2023-04-18T06:47:27.364Z,11.80
2023-04-18T06:48:27.556Z,11.60
2023-04-18T06:49:27.873Z,12.00
2023-04-18T06:50:28.362Z,12.20
2023-04-18T06:51:28.488Z,13.00
2023-04-18T06:52:28.799Z,12.60
2023-04-18T06:53:29.049Z,12.40
2023-04-18T06:54:29.409Z,12.00
2023-04-18T06:55:29.645Z,12.60
2023-04-18T06:56:29.887Z,12.70
2023-04-18T06:57:30.144Z,12.60
2023-04-18T06:58:30.509Z,12.70
2023-04-18T06:59:30.697Z,12.70
2023-04-18T07:00:30.974Z,12.80
2023-04-18T07:01:31.384Z,12.60
2023-04-18T07:02:31.546Z,12.50
2023-04-18T07:03:31.806Z,12.70
2023-04-18T07:04:32.514Z,12.90
2023-04-18T07:05:32.275Z,13.00
2023-04-18T07:06:32.578Z,12.60
2023-04-18T07:07:32.796Z,12.70
2023-04-18T07:08:33.189Z,12.90
2023-04-18T07:09:33.361Z,12.70
2023-04-18T07:10:33.706Z,12.70
2023-04-18T07:11:34.085Z,12.20
2023-04-18T07:12:34.185Z,13.20
2023-04-18T07:13:34.542Z,12.00
2023-04-18T07:14:34.717Z,12.10
2023-04-18T07:15:35.410Z,12.00
2023-04-18T07:16:35.341Z,12.70
2023-04-18T07:17:35.726Z,13.00
2023-04-18T07:18:38.375Z,12.70
2023-04-18T07:19:36.261Z,12.70
2023-04-18T07:20:36.568Z,12.60
2023-04-18T07:21:36.800Z,12.20
2023-04-18T07:22:37.509Z,12.10
2023-04-18T07:23:37.430Z,13.50
2023-04-18T07:24:37.803Z,13.00
2023-04-18T07:25:37.978Z,14.10
2023-04-18T07:26:38.331Z,13.80
2023-04-18T07:27:38.708Z,13.20
2023-04-18T07:28:38.959Z,14.50
2023-04-18T07:29:39.305Z,13.60
2023-04-18T07:30:39.473Z,13.30
2023-04-18T07:31:39.711Z,12.70
2023-04-18T07:32:40.716Z,12.40
2023-04-18T07:33:40.442Z,13.10
2023-04-18T07:34:40.555Z,13.40
2023-04-18T07:35:41.236Z,12.50
2023-04-18T07:36:41.274Z,13.10
2023-04-18T07:37:41.326Z,12.80
2023-04-18T07:38:41.581Z,13.50
2023-04-18T07:39:41.945Z,13.10
2023-04-18T07:40:42.214Z,13.10
2023-04-18T07:41:42.515Z,13.00
2023-04-18T07:42:42.836Z,12.70
2023-04-18T07:43:43.055Z,12.60
2023-04-18T07:44:43.398Z,12.90
2023-04-18T07:45:43.633Z,12.70
2023-04-18T07:46:43.950Z,13.00
2023-04-18T07:47:44.274Z,12.40
2023-04-18T07:48:44.512Z,11.90
2023-04-18T07:49:44.854Z,12.60
2023-04-18T07:50:45.063Z,13.20
2023-04-18T07:51:45.308Z,12.90
2023-04-18T07:52:45.608Z,13.20
2023-04-18T07:53:45.867Z,12.80
2023-04-18T07:54:46.212Z,13.10
2023-04-18T07:55:46.413Z,12.50
2023-04-18T07:56:46.662Z,13.10
2023-04-18T07:57:47.541Z,15.00
2023-04-18T07:58:47.162Z,13.90
2023-04-18T07:59:47.378Z,13.30
2023-04-18T08:00:47.793Z,15.10
2023-04-18T08:01:47.863Z,13.10
2023-04-18T08:02:48.220Z,13.10
2023-04-18T08:03:48.551Z,12.40
2023-04-18T08:04:48.775Z,12.80
2023-04-18T08:05:48.967Z,13.60
2023-04-18T08:06:49.271Z,13.00
2023-04-18T08:07:49.555Z,13.90
2023-04-18T08:08:49.896Z,12.90
2023-04-18T08:09:50.075Z,13.30
2023-04-18T08:10:50.330Z,13.10
2023-04-18T08:11:50.696Z,12.90
2023-04-18T08:12:50.934Z,12.80
2023-04-18T08:13:51.281Z,12.40
2023-04-18T08:14:51.473Z,13.00
2023-04-18T08:15:51.800Z,13.10
2023-04-18T08:16:52.022Z,12.90
2023-04-18T08:17:52.374Z,13.00
2023-04-18T08:18:52.612Z,13.00
2023-04-18T08:19:52.917Z,12.90
2023-04-18T08:20:53.153Z,12.50
2023-04-18T08:21:53.546Z,13.00
2023-04-18T08:23:06.335Z,12.90
2023-04-18T08:23:55.097Z,12.50
2023-04-18T08:25:04.353Z,13.20
2023-04-18T08:25:55.726Z,12.60
2023-04-18T08:26:55.027Z,12.60
2023-04-18T08:27:55.381Z,13.00
2023-04-18T08:28:55.642Z,12.80
2023-04-18T08:29:55.911Z,12.30
2023-04-18T08:30:56.206Z,12.60
2023-04-18T08:31:56.529Z,12.20
2023-04-18T08:32:56.777Z,12.30
2023-04-18T08:33:57.023Z,12.80
2023-04-18T08:34:57.241Z,12.30
2023-04-18T08:35:57.898Z,12.40
2023-04-18T08:36:57.834Z,12.20
2023-04-18T08:37:58.072Z,12.30
2023-04-18T08:38:58.457Z,12.70
2023-04-18T08:39:58.683Z,12.40
2023-04-18T08:40:59.023Z,12.60
2023-04-18T08:41:59.336Z,12.90
2023-04-18T08:42:59.617Z,12.80
2023-04-18T08:43:59.924Z,13.10
2023-04-18T08:45:00.172Z,11.90
2023-04-18T08:46:00.429Z,11.80
2023-04-18T08:47:00.693Z,13.50
2023-04-18T08:48:01.123Z,12.10
2023-04-18T08:49:01.233Z,12.10
2023-04-18T08:50:01.718Z,12.20
2023-04-18T08:51:01.955Z,11.70
2023-04-18T08:52:02.242Z,11.50
2023-04-18T08:53:02.491Z,11.80
2023-04-18T08:54:02.792Z,11.90
2023-04-18T08:55:03.009Z,11.40
2023-04-18T08:56:03.303Z,12.10
2023-04-18T08:57:03.606Z,11.70
2023-04-18T08:58:03.896Z,11.00
2023-04-18T08:59:04.257Z,11.80
2023-04-18T09:00:04.475Z,12.90
2023-04-18T09:01:04.926Z,11.80
2023-04-18T09:02:05.126Z,11.60
2023-04-18T09:03:05.429Z,12.30
2023-04-18T09:04:05.740Z,11.60
2023-04-18T09:05:05.998Z,11.30
2023-04-18T09:06:06.471Z,13.20
2023-04-18T09:07:06.655Z,11.60
2023-04-18T09:08:06.900Z,12.00
2023-04-18T09:09:07.183Z,11.50
2023-04-18T09:10:07.496Z,11.10
2023-04-18T09:11:08.057Z,11.40
2023-04-18T09:12:08.244Z,11.60
2023-04-18T09:13:08.444Z,11.70
2023-04-18T09:14:08.614Z,11.40
2023-04-18T09:15:09.049Z,11.30
2023-04-18T09:16:09.270Z,11.20
2023-04-18T09:17:09.429Z,11.30
2023-04-18T09:18:09.749Z,11.10
2023-04-18T09:19:10.003Z,11.40
2023-04-18T09:20:10.269Z,11.00
2023-04-18T09:21:10.522Z,10.60
2023-04-18T09:22:10.781Z,11.60
2023-04-18T09:23:11.505Z,10.90
2023-04-18T09:24:11.667Z,11.60
2023-04-18T09:25:11.587Z,10.90
2023-04-18T09:26:11.837Z,11.20
2023-04-18T09:27:12.187Z,10.90
2023-04-18T09:28:12.516Z,10.90
2023-04-18T09:29:13.040Z,10.90
2023-04-18T09:30:13.223Z,10.60
2023-04-18T09:31:13.486Z,13.60
2023-04-18T09:32:13.597Z,11.60
2023-04-18T09:33:14.109Z,11.50
2023-04-18T09:34:14.579Z,10.90
2023-04-18T09:35:15.007Z,11.10
2023-04-18T09:36:14.807Z,11.30
2023-04-18T09:37:15.300Z,11.40
2023-04-18T09:38:15.375Z,11.00
2023-04-18T09:39:15.782Z,11.60
2023-04-18T09:40:15.939Z,11.10
2023-04-18T09:41:16.854Z,11.10
2023-04-18T09:42:16.454Z,11.20
2023-04-18T09:43:17.015Z,11.40
2023-04-18T09:44:17.446Z,11.70
2023-04-18T09:45:17.492Z,11.40
2023-04-18T09:46:17.694Z,11.80
2023-04-18T09:47:17.899Z,11.80
2023-04-18T09:48:18.127Z,11.70
2023-04-18T09:49:18.683Z,12.80
2023-04-18T09:50:18.714Z,12.20
2023-04-18T09:51:19.013Z,12.00
2023-04-18T09:52:19.212Z,11.90
2023-04-18T09:53:20.818Z,11.80
2023-04-18T09:54:19.813Z,11.50
2023-04-18T09:55:20.273Z,11.50
2023-04-18T09:56:20.512Z,11.20
2023-04-18T09:57:20.602Z,12.10
2023-04-18T09:58:20.830Z,12.00
2023-04-18T09:59:21.310Z,11.70
2023-04-18T10:00:21.440Z,11.50
2023-04-18T10:01:21.766Z,11.90
2023-04-18T10:02:22.098Z,11.30
2023-04-18T10:03:22.455Z,12.10
2023-04-18T10:04:22.552Z,11.10
2023-04-18T10:05:23.159Z,11.30
2023-04-18T10:06:23.157Z,11.10
2023-04-18T10:07:23.407Z,11.60
2023-04-18T10:08:23.658Z,11.50
2023-04-18T10:09:23.965Z,10.50
2023-04-18T10:10:24.267Z,10.50
2023-04-18T10:11:24.589Z,10.80
2023-04-18T10:12:24.832Z,11.00
2023-04-18T10:13:25.192Z,10.50
2023-04-18T10:14:26.400Z,10.10
2023-04-18T10:15:25.632Z,10.60
2023-04-18T10:16:25.978Z,9.80
2023-04-18T10:17:27.519Z,10.30
2023-04-18T10:18:26.485Z,10.80
2023-04-18T10:19:26.860Z,10.90
2023-04-18T10:20:26.991Z,10.20
2023-04-18T10:21:27.314Z,10.20
2023-04-18T10:22:27.573Z,10.70
2023-04-18T10:23:28.185Z,11.50
2023-04-18T10:24:28.143Z,10.60
2023-04-18T10:25:28.375Z,10.80
2023-04-18T10:26:28.722Z,10.10
2023-04-18T10:27:28.991Z,10.20
2023-04-18T10:28:29.307Z,10.20
2023-04-18T10:29:29.575Z,10.50
2023-04-18T10:30:29.811Z,10.40
2023-04-18T10:31:30.267Z,10.60
2023-04-18T10:32:30.505Z,9.90
2023-04-18T10:33:32.391Z,9.70
2023-04-18T10:34:31.017Z,9.70
2023-04-18T10:35:31.279Z,8.80
2023-04-18T10:36:31.602Z,8.80
2023-04-18T10:37:31.923Z,9.50
2023-04-18T10:38:32.110Z,8.70
2023-04-18T10:39:32.569Z,8.60
2023-04-18T10:40:32.839Z,8.40
2023-04-18T10:41:33.187Z,8.50
2023-04-18T10:42:33.387Z,8.90
2023-04-18T10:43:33.757Z,8.50
2023-04-18T10:44:34.128Z,8.50
2023-04-18T10:45:34.398Z,9.50
2023-04-18T10:46:34.629Z,8.50
2023-04-18T10:47:35.175Z,8.50
2023-04-18T10:49:35.690Z,8.20
2023-04-18T10:50:35.781Z,9.00
2023-04-18T10:51:36.047Z,9.10
2023-04-18T10:52:36.275Z,8.70
2023-04-18T10:53:36.606Z,9.10
2023-04-18T10:54:36.821Z,8.80
2023-04-18T10:55:37.084Z,8.70
2023-04-18T10:56:37.346Z,8.70
2023-04-18T10:57:37.674Z,9.40
2023-04-18T10:58:38.108Z,9.10
2023-04-18T10:59:38.222Z,8.90
2023-04-18T11:00:38.464Z,8.20
2023-04-18T11:01:38.708Z,8.40
2023-04-18T11:02:39.003Z,8.60
2023-04-18T11:03:39.396Z,8.20
2023-04-18T11:04:39.658Z,7.90
2023-04-18T11:05:39.926Z,8.20
2023-04-18T11:06:41.298Z,8.10
2023-04-18T11:07:40.521Z,8.20
2023-04-18T11:08:40.733Z,8.30
2023-04-18T11:09:41.034Z,12.90
2023-04-18T11:10:41.301Z,17.00
2023-04-18T11:11:41.571Z,10.20
2023-04-18T11:12:41.786Z,9.50
2023-04-18T11:13:42.196Z,7.50
2023-04-18T11:14:42.424Z,7.50
2023-04-18T11:15:42.680Z,7.70
2023-04-18T11:16:42.967Z,7.60
2023-04-18T11:17:43.217Z,7.80
2023-04-18T11:18:43.462Z,9.40
2023-04-18T11:19:43.724Z,7.20
2023-04-18T11:20:43.990Z,7.60
2023-04-18T11:21:44.313Z,7.40
2023-04-18T11:22:44.654Z,7.30
2023-04-18T11:23:44.867Z,7.20
2023-04-18T11:24:45.079Z,7.60
2023-04-18T11:25:45.461Z,7.70
2023-04-18T11:26:45.701Z,7.10
2023-04-18T11:27:46.017Z,7.40
2023-04-18T11:28:46.218Z,7.20
2023-04-18T11:29:46.563Z,6.50
2023-04-18T11:30:46.965Z,6.60
2023-04-18T11:31:47.217Z,6.70
2023-04-18T11:32:47.479Z,6.50
2023-04-18T11:33:47.757Z,6.70
2023-04-18T11:34:47.997Z,6.30
2023-04-18T11:35:48.249Z,6.40
2023-04-18T11:36:48.517Z,6.40
2023-04-18T11:37:48.788Z,6.10
2023-04-18T11:38:49.061Z,6.20
2023-04-18T11:39:49.379Z,6.20
2023-04-18T11:40:49.635Z,6.10
2023-04-18T11:41:49.850Z,5.80
2023-04-18T11:42:50.110Z,6.20
2023-04-18T11:43:50.446Z,5.60
2023-04-18T11:44:50.692Z,5.90
2023-04-18T11:45:51.052Z,5.40
2023-04-18T11:46:51.210Z,5.50
2023-04-18T11:47:51.624Z,5.20
2023-04-18T11:48:51.849Z,5.20
2023-04-18T11:49:52.155Z,5.10
2023-04-18T11:50:52.355Z,5.00
2023-04-18T11:51:52.742Z,5.20
2023-04-18T11:52:53.040Z,5.20
2023-04-18T11:53:53.517Z,5.30
2023-04-18T11:54:53.606Z,5.30
2023-04-18T11:55:53.981Z,5.20
2023-04-18T11:56:54.204Z,5.40
2023-04-18T11:57:54.626Z,5.50
2023-04-18T11:58:54.864Z,5.20
2023-04-18T11:59:55.079Z,5.20
2023-04-18T12:00:55.481Z,5.20
2023-04-18T12:01:58.764Z,5.30
2023-04-18T12:02:55.980Z,4.80
2023-04-18T12:03:56.379Z,5.00
2023-04-18T12:04:56.908Z,4.80
2023-04-18T12:05:56.915Z,5.00
2023-04-18T12:06:57.109Z,5.30
2023-04-18T12:07:57.429Z,4.80
2023-04-18T12:08:57.598Z,4.70
2023-04-18T12:09:58.014Z,4.80
2023-04-18T12:10:58.202Z,4.90
2023-04-18T12:11:58.642Z,4.60
2023-04-18T12:12:58.824Z,5.00
2023-04-18T12:13:59.178Z,4.80
2023-04-18T12:14:59.418Z,4.90
2023-04-18T12:15:59.782Z,4.90
2023-04-18T12:16:59.990Z,4.80
2023-04-18T12:18:00.355Z,4.60
2023-04-18T12:19:00.527Z,4.20
2023-04-18T12:20:00.939Z,4.20
2023-04-18T12:21:01.082Z,4.10
2023-04-18T12:22:01.461Z,4.00
2023-04-18T12:23:01.642Z,4.00
2023-04-18T12:24:02.168Z,4.00
2023-04-18T12:25:02.256Z,4.20
2023-04-18T12:26:02.509Z,3.90
2023-04-18T12:27:02.732Z,3.80
2023-04-18T12:28:02.972Z,4.00
2023-04-18T12:29:03.191Z,4.00
2023-04-18T12:30:03.574Z,4.20
2023-04-18T12:31:03.852Z,4.20
2023-04-18T12:32:03.994Z,4.30
2023-04-18T12:33:04.402Z,4.40
2023-04-18T12:34:04.627Z,4.40
2023-04-18T12:35:04.885Z,4.80
2023-04-18T12:36:05.153Z,4.60
2023-04-18T12:37:05.391Z,4.20
2023-04-18T12:38:05.600Z,4.30
2023-04-18T12:39:05.981Z,4.50
2023-04-18T12:40:06.187Z,4.10
2023-04-18T12:41:06.660Z,4.30
2023-04-18T12:42:06.908Z,4.20
2023-04-18T12:43:07.083Z,4.40
2023-04-18T12:44:07.324Z,4.40
2023-04-18T12:45:07.598Z,4.10
2023-04-18T12:46:07.821Z,4.40
2023-04-18T12:47:08.264Z,7.00
2023-04-18T12:48:08.410Z,4.50
2023-04-18T12:49:08.754Z,5.00
2023-04-18T12:50:11.248Z,4.40
2023-04-18T12:51:09.220Z,4.50
2023-04-18T12:52:09.615Z,4.20
2023-04-18T12:53:09.799Z,4.20
2023-04-18T12:54:10.044Z,4.30
2023-04-18T12:55:10.299Z,4.50
2023-04-18T12:56:10.548Z,4.00
2023-04-18T12:57:10.950Z,4.30
2023-04-18T12:58:11.070Z,4.00
2023-04-18T12:59:11.498Z,4.10
2023-04-18T13:00:11.743Z,4.10
2023-04-18T13:01:12.122Z,3.90
2023-04-18T13:02:12.761Z,3.70
2023-04-18T13:03:13.433Z,4.00
2023-04-18T13:04:13.569Z,4.00
2023-04-18T13:05:13.425Z,3.90
2023-04-18T13:06:13.776Z,3.90
2023-04-18T13:07:13.878Z,4.30
2023-04-18T13:08:17.653Z,4.30
2023-04-18T13:09:14.742Z,4.50
2023-04-18T13:10:14.760Z,4.10